createdAt,value
2017-02-24T00:00:56.258Z,3.33
2017-02-24T00:02:05.700Z,3.28
2017-02-24T00:03:15.156Z,3.33
2017-02-24T00:04:25.012Z,3.4
2017-02-24T00:05:34.457Z,3.39
2017-02-24T00:06:43.890Z,3.43
2017-02-24T00:07:52.974Z,3.43
2017-02-24T00:09:02.043Z,3.45
2017-02-24T00:10:11.871Z,3.36
2017-02-24T00:11:20.931Z,3.43
2017-02-24T00:12:31.216Z,3.54
2017-02-24T00:13:41.053Z,3.58
2017-02-24T00:14:50.495Z,3.57
2017-02-24T00:15:59.169Z,3.55
2017-02-24T00:17:08.236Z,3.54
2017-02-24T00:18:17.681Z,3.57
2017-02-24T00:19:26.743Z,3.54
2017-02-24T00:20:36.179Z,3.51
2017-02-24T00:21:45.240Z,3.51
2017-02-24T00:22:54.711Z,3.66
2017-02-24T00:24:04.167Z,3.58
2017-02-24T00:25:12.845Z,3.65
2017-02-24T00:26:22.297Z,3.52
2017-02-24T00:27:31.743Z,3.58
2017-02-24T00:28:41.178Z,3.66
2017-02-24T00:29:51.060Z,3.62
2017-02-24T00:31:00.513Z,3.69
2017-02-24T00:32:09.588Z,3.58
2017-02-24T00:33:19.022Z,3.66
2017-02-24T00:34:28.861Z,3.57
2017-02-24T00:35:38.309Z,3.68
2017-02-24T00:36:47.403Z,3.62
2017-02-24T00:37:56.858Z,3.6
2017-02-24T00:39:06.709Z,3.55
2017-02-24T00:40:16.953Z,3.57
2017-02-24T00:41:26.440Z,3.61
2017-02-24T00:42:35.498Z,3.54
2017-02-24T00:43:44.548Z,3.48
2017-02-24T00:44:53.634Z,3.55
2017-02-24T00:46:02.693Z,3.52
2017-02-24T00:47:12.182Z,3.43
2017-02-24T00:48:21.621Z,3.43
2017-02-24T00:49:31.853Z,3.4
2017-02-24T00:50:40.527Z,3.36
2017-02-24T00:51:49.217Z,3.33
2017-02-24T00:52:58.273Z,3.42
2017-02-24T00:54:07.736Z,3.36
2017-02-24T00:55:17.580Z,3.35
2017-02-24T00:56:27.027Z,3.42
2017-02-24T00:57:36.485Z,3.43
2017-02-24T00:58:45.990Z,3.42
2017-02-24T00:59:55.812Z,3.42
2017-02-24T01:01:06.046Z,3.43
2017-02-24T01:02:15.118Z,3.4
2017-02-24T01:03:24.993Z,3.43
2017-02-24T01:04:34.078Z,3.43
2017-02-24T01:05:44.280Z,3.51
2017-02-24T01:06:54.125Z,3.47
2017-02-24T01:08:03.556Z,3.42
2017-02-24T01:09:12.646Z,3.43
2017-02-24T01:10:22.467Z,3.43
2017-02-24T01:11:31.955Z,3.42
2017-02-24T01:12:41.393Z,3.39
2017-02-24T01:13:50.833Z,3.42
2017-02-24T01:14:59.910Z,3.45
2017-02-24T01:16:09.347Z,3.36
2017-02-24T01:17:18.415Z,3.39
2017-02-24T01:18:28.234Z,3.4
2017-02-24T01:19:37.318Z,3.39
2017-02-24T01:20:46.765Z,3.54
2017-02-24T01:21:56.588Z,3.57
2017-02-24T01:23:05.657Z,3.55
2017-02-24T01:24:15.481Z,3.6
2017-02-24T01:25:24.941Z,3.54
2017-02-24T01:26:34.382Z,3.48
2017-02-24T01:27:43.449Z,3.48
2017-02-24T01:28:52.159Z,3.61
2017-02-24T01:30:01.990Z,3.62
2017-02-24T01:31:11.438Z,3.6
2017-02-24T01:32:20.125Z,3.58
2017-02-24T01:33:29.191Z,3.61
2017-02-24T01:34:39.031Z,3.6
2017-02-24T01:35:48.109Z,3.66
2017-02-24T01:36:57.543Z,3.66
2017-02-24T01:38:06.627Z,3.7
2017-02-24T01:39:16.065Z,3.68
2017-02-24T01:40:24.757Z,3.7
2017-02-24T01:41:33.823Z,3.75
2017-02-24T01:42:43.302Z,3.68
2017-02-24T01:43:52.361Z,3.61
2017-02-24T01:45:01.435Z,3.76
2017-02-24T01:46:11.668Z,3.6
2017-02-24T01:47:21.509Z,3.6
2017-02-24T01:48:30.957Z,3.57
2017-02-24T01:49:39.622Z,3.66
2017-02-24T01:50:48.676Z,3.65
2017-02-24T01:51:58.119Z,3.54
2017-02-24T01:53:07.205Z,3.54
2017-02-24T01:54:17.065Z,3.5
2017-02-24T01:55:26.895Z,3.52
2017-02-24T01:56:36.326Z,3.52
2017-02-24T01:57:46.164Z,3.58
2017-02-24T01:58:55.988Z,3.36
2017-02-24T02:00:05.429Z,3.4
2017-02-24T02:01:15.283Z,3.39
2017-02-24T02:02:24.738Z,3.36
2017-02-24T02:03:34.248Z,3.4
2017-02-24T02:04:43.716Z,3.42
2017-02-24T02:05:53.545Z,3.35
2017-02-24T02:07:03.010Z,3.36
2017-02-24T02:08:12.925Z,3.39
2017-02-24T02:09:22.409Z,3.35
2017-02-24T02:10:31.874Z,3.43
2017-02-24T02:11:40.990Z,3.39
2017-02-24T02:12:51.218Z,3.35
2017-02-24T02:13:59.924Z,3.55
2017-02-24T02:15:09.794Z,3.55
2017-02-24T02:16:19.265Z,3.4
2017-02-24T02:17:27.982Z,3.5
2017-02-24T02:18:37.066Z,3.36
2017-02-24T02:19:46.536Z,3.54
2017-02-24T02:20:56.007Z,3.42
2017-02-24T02:22:05.488Z,3.54
2017-02-24T02:23:14.961Z,3.45
2017-02-24T02:24:24.832Z,3.55
2017-02-24T02:25:34.684Z,3.57
2017-02-24T02:26:43.776Z,3.52
2017-02-24T02:27:53.641Z,3.58
2017-02-24T02:29:02.348Z,3.7
2017-02-24T02:30:11.441Z,3.68
2017-02-24T02:31:20.524Z,3.69
2017-02-24T02:32:30.011Z,3.57
2017-02-24T02:33:39.897Z,3.69
2017-02-24T02:34:49.360Z,3.72
2017-02-24T02:35:59.223Z,3.66
2017-02-24T02:37:09.073Z,3.78
2017-02-24T02:38:17.791Z,3.79
2017-02-24T02:39:26.888Z,3.8
2017-02-24T02:40:37.127Z,3.62
2017-02-24T02:41:46.205Z,3.51
2017-02-24T02:42:56.107Z,3.4
2017-02-24T02:44:05.182Z,3.42
2017-02-24T02:45:14.270Z,3.31
2017-02-24T02:46:24.512Z,3.35
2017-02-24T02:47:34.368Z,3.21
2017-02-24T02:48:44.246Z,3.29
2017-02-24T02:49:53.328Z,3.26
2017-02-24T02:51:02.826Z,3.28
2017-02-24T02:52:12.678Z,3.31
2017-02-24T02:53:22.539Z,3.39
2017-02-24T02:54:32.443Z,3.4
2017-02-24T02:55:41.919Z,3.4
2017-02-24T02:56:51.027Z,3.39
2017-02-24T02:58:00.513Z,3.39
2017-02-24T02:59:09.991Z,3.55
2017-02-24T03:00:18.697Z,3.57
2017-02-24T03:01:28.175Z,3.66
2017-02-24T03:02:37.678Z,3.66
2017-02-24T03:03:46.767Z,3.51
2017-02-24T03:04:55.483Z,3.65
2017-02-24T03:06:04.971Z,3.6
2017-02-24T03:07:14.442Z,3.68
2017-02-24T03:08:23.944Z,3.61
2017-02-24T03:09:34.195Z,3.55
2017-02-24T03:10:43.297Z,3.6
2017-02-24T03:11:52.934Z,3.65
2017-02-24T03:13:02.394Z,3.72
2017-02-24T03:14:11.877Z,3.68
2017-02-24T03:15:21.729Z,3.65
2017-02-24T03:16:31.587Z,3.69
2017-02-24T03:17:41.126Z,3.7
2017-02-24T03:18:50.204Z,3.68
2017-02-24T03:19:59.684Z,3.57
2017-02-24T03:21:08.774Z,3.6
2017-02-24T03:22:18.261Z,3.66
2017-02-24T03:23:27.721Z,3.76
2017-02-24T03:24:37.225Z,3.76
2017-02-24T03:25:46.316Z,3.84
2017-02-24T03:26:55.020Z,3.79
2017-02-24T03:28:04.149Z,3.78
2017-02-24T03:29:13.302Z,3.78
2017-02-24T03:30:22.434Z,3.72
2017-02-24T03:31:31.551Z,3.69
2017-02-24T03:32:40.255Z,3.75
2017-02-24T03:33:49.716Z,3.6
2017-02-24T03:34:59.575Z,3.57
2017-02-24T03:36:09.054Z,3.61
2017-02-24T03:37:18.536Z,3.72
2017-02-24T03:38:28.018Z,3.58
2017-02-24T03:39:37.156Z,3.54
2017-02-24T03:40:46.349Z,3.43
2017-02-24T03:41:55.834Z,3.28
2017-02-24T03:43:05.750Z,3.26
2017-02-24T03:44:15.257Z,3.06
2017-02-24T03:45:24.949Z,3.02
2017-02-24T03:46:34.134Z,2.9
2017-02-24T03:47:43.993Z,2.92
2017-02-24T03:48:53.900Z,2.96
2017-02-24T03:50:03.789Z,2.93
2017-02-24T03:51:13.665Z,2.78
2017-02-24T03:52:23.142Z,2.69
2017-02-24T03:53:32.219Z,2.66
2017-02-24T03:54:41.706Z,2.6
2017-02-24T03:55:51.246Z,2.49
2017-02-24T03:57:01.099Z,2.56
2017-02-24T03:58:10.240Z,2.48
2017-02-24T03:59:19.789Z,2.43
2017-02-24T04:00:30.020Z,2.48
2017-02-24T04:01:39.116Z,2.45
2017-02-24T04:02:48.603Z,2.57
2017-02-24T04:03:58.456Z,2.43
2017-02-24T04:05:08.322Z,2.46
2017-02-24T04:06:17.412Z,2.41
2017-02-24T04:07:26.900Z,2.36
2017-02-24T04:08:36.378Z,2.38
2017-02-24T04:09:45.464Z,2.25
2017-02-24T04:10:54.955Z,2.28
2017-02-24T04:12:04.813Z,2.38
2017-02-24T04:13:14.653Z,2.28
2017-02-24T04:14:23.729Z,2.25
2017-02-24T04:15:33.996Z,2.34
2017-02-24T04:16:43.086Z,2.39
2017-02-24T04:17:52.599Z,2.23
2017-02-24T04:19:01.690Z,2.24
2017-02-24T04:20:10.795Z,2.38
2017-02-24T04:21:20.257Z,2.23
2017-02-24T04:22:29.369Z,2.36
2017-02-24T04:23:39.231Z,2.36
2017-02-24T04:24:48.694Z,2.36
2017-02-24T04:25:58.180Z,2.24
2017-02-24T04:27:08.042Z,2.3
2017-02-24T04:28:17.505Z,2.31
2017-02-24T04:29:26.988Z,2.3
2017-02-24T04:30:35.677Z,2.38
2017-02-24T04:31:45.141Z,2.39
2017-02-24T04:32:55.003Z,2.36
2017-02-24T04:34:04.144Z,2.48
2017-02-24T04:35:13.229Z,2.42
2017-02-24T04:36:22.320Z,2.39
2017-02-24T04:37:32.157Z,2.25
2017-02-24T04:38:40.877Z,2.24
2017-02-24T04:39:50.744Z,2.3
2017-02-24T04:41:00.609Z,2.36
2017-02-24T04:42:10.509Z,2.39
2017-02-24T04:43:20.002Z,2.39
2017-02-24T04:44:29.098Z,2.36
2017-02-24T04:45:39.355Z,2.31
2017-02-24T04:46:48.447Z,2.46
2017-02-24T04:47:57.153Z,2.39
2017-02-24T04:49:06.608Z,2.3
2017-02-24T04:50:15.710Z,2.39
2017-02-24T04:51:25.587Z,2.36
2017-02-24T04:52:34.318Z,2.36
2017-02-24T04:53:43.798Z,2.34
2017-02-24T04:54:53.295Z,2.35
2017-02-24T04:56:02.381Z,2.49
2017-02-24T04:57:12.242Z,2.52
2017-02-24T04:58:22.107Z,2.52
2017-02-24T04:59:31.958Z,2.49
2017-02-24T05:00:41.943Z,2.56
2017-02-24T05:01:51.398Z,2.45
2017-02-24T05:03:01.302Z,2.52
2017-02-24T05:04:11.578Z,2.42
2017-02-24T05:05:21.061Z,2.36
2017-02-24T05:06:30.142Z,2.25
2017-02-24T05:07:40.055Z,2.21
2017-02-24T05:08:49.533Z,2.23
2017-02-24T05:09:58.610Z,2.23
2017-02-24T05:11:08.462Z,2.28
2017-02-24T05:12:18.340Z,2.25
2017-02-24T05:13:27.088Z,2.31
2017-02-24T05:14:36.173Z,2.31
2017-02-24T05:15:45.656Z,2.24
2017-02-24T05:16:55.139Z,2.28
2017-02-24T05:18:04.626Z,2.27
2017-02-24T05:19:14.090Z,2.35
2017-02-24T05:20:23.567Z,2.43
2017-02-24T05:21:32.652Z,2.39
2017-02-24T05:22:42.530Z,2.46
2017-02-24T05:23:51.635Z,2.45
2017-02-24T05:25:01.489Z,2.48
2017-02-24T05:26:10.576Z,2.39
2017-02-24T05:27:20.815Z,2.35
2017-02-24T05:28:30.669Z,2.25
2017-02-24T05:29:40.922Z,2.25
2017-02-24T05:30:50.805Z,2.28
2017-02-24T05:32:00.289Z,2.25
2017-02-24T05:33:09.360Z,2.24
2017-02-24T05:34:19.237Z,2.27
2017-02-24T05:35:28.352Z,2.34
2017-02-24T05:36:37.828Z,2.34
2017-02-24T05:37:46.941Z,2.31
2017-02-24T05:38:56.044Z,2.38
2017-02-24T05:40:05.149Z,2.39
2017-02-24T05:41:14.616Z,2.31
2017-02-24T05:42:24.493Z,2.36
2017-02-24T05:43:33.198Z,2.42
2017-02-24T05:44:42.285Z,2.43
2017-02-24T05:45:50.982Z,2.35
2017-02-24T05:47:00.092Z,2.38
2017-02-24T05:48:09.559Z,2.36
2017-02-24T05:49:18.651Z,2.39
2017-02-24T05:50:28.121Z,2.39
2017-02-24T05:51:37.616Z,2.28
2017-02-24T05:52:47.090Z,2.25
2017-02-24T05:53:56.270Z,2.27
2017-02-24T05:55:04.963Z,2.25
2017-02-24T05:56:14.819Z,2.36
2017-02-24T05:57:23.903Z,2.23
2017-02-24T05:58:33.769Z,2.25
2017-02-24T05:59:42.852Z,2.3
2017-02-24T06:00:52.328Z,2.25
2017-02-24T06:02:01.456Z,2.31
2017-02-24T06:03:10.576Z,2.31
2017-02-24T06:04:19.663Z,2.25
2017-02-24T06:05:28.359Z,2.25
2017-02-24T06:06:37.856Z,2.24
2017-02-24T06:07:48.119Z,2.23
2017-02-24T06:08:57.586Z,2.27
2017-02-24T06:10:07.460Z,2.2
2017-02-24T06:11:16.215Z,2.27
2017-02-24T06:12:24.925Z,2.38
2017-02-24T06:13:34.395Z,2.41
2017-02-24T06:14:43.482Z,2.45
2017-02-24T06:15:53.354Z,2.3
2017-02-24T06:17:03.633Z,2.36
2017-02-24T06:18:13.501Z,2.25
2017-02-24T06:19:22.584Z,2.27
2017-02-24T06:20:31.681Z,2.27
2017-02-24T06:21:41.535Z,2.21
2017-02-24T06:22:51.476Z,2.35
2017-02-24T06:24:00.965Z,2.24
2017-02-24T06:25:10.427Z,2.21
2017-02-24T06:26:21.060Z,2.28
2017-02-24T06:27:29.767Z,2.28
2017-02-24T06:28:38.487Z,2.2
2017-02-24T06:29:48.369Z,2.07
2017-02-24T06:30:57.854Z,2.05
2017-02-24T06:32:07.375Z,2.16
2017-02-24T06:33:17.239Z,2.2
2017-02-24T06:34:26.733Z,2.24
2017-02-24T06:35:35.818Z,2.2
2017-02-24T06:36:44.520Z,2.21
2017-02-24T06:37:54.381Z,2.02
2017-02-24T06:39:03.861Z,2.06
2017-02-24T06:40:14.119Z,2.07
2017-02-24T06:41:23.973Z,2.23
2017-02-24T06:42:33.848Z,2.16
2017-02-24T06:43:43.319Z,2.23
2017-02-24T06:44:52.792Z,2.18
2017-02-24T06:46:03.476Z,2.12
2017-02-24T06:47:12.941Z,2.06
2017-02-24T06:48:22.403Z,2.02
2017-02-24T06:49:33.029Z,2.03
2017-02-24T06:50:42.512Z,1.99
2017-02-24T06:51:52.402Z,2.06
2017-02-24T06:53:02.266Z,2.1
2017-02-24T06:54:11.751Z,2.09
2017-02-24T06:55:21.232Z,2.05
2017-02-24T06:56:30.333Z,2.03
2017-02-24T06:57:40.202Z,2.06
2017-02-24T06:58:49.682Z,2.05
2017-02-24T06:59:58.775Z,2.05
2017-02-24T07:01:09.484Z,2.09
2017-02-24T07:02:18.583Z,2.05
2017-02-24T07:03:28.068Z,2.03
2017-02-24T07:04:37.929Z,1.93
2017-02-24T07:05:47.040Z,1.84
2017-02-24T07:06:56.906Z,1.81
2017-02-24T07:08:07.548Z,1.66
2017-02-24T07:09:17.016Z,1.65
2017-02-24T07:10:26.492Z,1.6
2017-02-24T07:11:36.345Z,1.58
2017-02-24T07:12:45.445Z,1.79
2017-02-24T07:13:55.314Z,1.91
2017-02-24T07:15:04.839Z,1.9
2017-02-24T07:16:13.938Z,1.8
2017-02-24T07:17:23.452Z,1.81
2017-02-24T07:18:34.095Z,1.88
2017-02-24T07:19:43.175Z,1.86
2017-02-24T07:20:53.034Z,1.9
2017-02-24T07:22:02.518Z,1.87
2017-02-24T07:23:11.983Z,2
2017-02-24T07:24:21.454Z,1.98
2017-02-24T07:25:30.951Z,2.05
2017-02-24T07:26:40.067Z,2.18
2017-02-24T07:27:49.172Z,2.16
2017-02-24T07:28:58.651Z,2.27
2017-02-24T07:30:08.515Z,2.2
2017-02-24T07:31:17.628Z,2.16
2017-02-24T07:32:26.774Z,2.2
2017-02-24T07:33:36.245Z,2.23
2017-02-24T07:34:45.708Z,2.18
2017-02-24T07:35:55.570Z,2.25
2017-02-24T07:37:04.669Z,2.18
2017-02-24T07:38:13.382Z,2.23
2017-02-24T07:39:22.096Z,2.25
2017-02-24T07:40:31.573Z,2.23
2017-02-24T07:41:41.443Z,2.27
2017-02-24T07:42:50.545Z,2.27
2017-02-24T07:44:00.033Z,2.31
2017-02-24T07:45:09.499Z,2.6
2017-02-24T07:46:19.353Z,2.46
2017-02-24T07:47:28.831Z,2.53
2017-02-24T07:48:37.911Z,2.6
2017-02-24T07:49:46.673Z,2.53
2017-02-24T07:50:55.780Z,2.66
2017-02-24T07:52:04.499Z,2.71
2017-02-24T07:53:13.987Z,2.79
2017-02-24T07:54:23.079Z,2.89
2017-02-24T07:55:32.573Z,2.85
2017-02-24T07:56:42.418Z,2.92
2017-02-24T07:57:51.900Z,2.96
2017-02-24T07:59:01.766Z,2.81
2017-02-24T08:00:11.263Z,2.82
2017-02-24T08:01:20.737Z,2.89
2017-02-24T08:02:31.039Z,2.87
2017-02-24T08:03:41.647Z,2.84
2017-02-24T08:04:51.131Z,2.95
2017-02-24T08:06:00.991Z,2.9
2017-02-24T08:07:11.277Z,2.99
2017-02-24T08:08:20.381Z,2.93
2017-02-24T08:09:29.837Z,2.95
2017-02-24T08:10:40.104Z,2.95
2017-02-24T08:11:49.583Z,2.99
2017-02-24T08:12:58.679Z,2.99
2017-02-24T08:14:08.162Z,2.99
2017-02-24T08:15:17.657Z,2.95
2017-02-24T08:16:27.520Z,2.97
2017-02-24T08:17:36.228Z,2.93
2017-02-24T08:18:45.760Z,3.05
2017-02-24T08:19:55.624Z,3.06
2017-02-24T08:21:05.119Z,3.13
2017-02-24T08:22:14.588Z,3.05
2017-02-24T08:23:24.462Z,3.1
2017-02-24T08:24:33.568Z,3.23
2017-02-24T08:25:42.287Z,3.26
2017-02-24T08:26:51.379Z,3.28
2017-02-24T08:28:00.475Z,3.26
2017-02-24T08:29:09.580Z,3.28
2017-02-24T08:30:19.822Z,3.4
2017-02-24T08:31:28.572Z,3.45
2017-02-24T08:32:37.274Z,3.4
2017-02-24T08:33:45.995Z,3.39
2017-02-24T08:34:56.241Z,3.55
2017-02-24T08:36:06.124Z,3.65
2017-02-24T08:37:15.277Z,3.73
2017-02-24T08:38:25.174Z,3.75
2017-02-24T08:39:34.637Z,3.8
2017-02-24T08:40:44.502Z,3.78
2017-02-24T08:41:53.661Z,3.76
2017-02-24T08:43:03.204Z,3.73
2017-02-24T08:44:12.342Z,3.76
2017-02-24T08:45:21.432Z,3.8
2017-02-24T08:46:30.918Z,3.78
2017-02-24T08:47:40.774Z,3.86
2017-02-24T08:48:49.474Z,3.79
2017-02-24T08:49:58.555Z,3.83
2017-02-24T08:51:08.034Z,3.79
2017-02-24T08:52:17.153Z,4.04
2017-02-24T08:53:26.645Z,3.94
2017-02-24T08:54:36.141Z,3.98
2017-02-24T08:55:46.433Z,4.05
2017-02-24T08:56:55.899Z,4
2017-02-24T08:58:05.019Z,4.12
2017-02-24T08:59:14.113Z,4.22
2017-02-24T09:00:23.570Z,4.29
2017-02-24T09:01:32.674Z,4.29
2017-02-24T09:02:42.162Z,4.24
2017-02-24T09:03:52.049Z,4.4
2017-02-24T09:05:01.589Z,4.27
2017-02-24T09:06:10.304Z,4.42
2017-02-24T09:07:20.216Z,4.42
2017-02-24T09:08:29.317Z,4.48
2017-02-24T09:09:38.821Z,4.48
2017-02-24T09:10:49.156Z,4.45
2017-02-24T09:11:59.473Z,4.48
2017-02-24T09:13:08.658Z,4.5
2017-02-24T09:14:18.163Z,4.55
2017-02-24T09:15:27.256Z,4.62
2017-02-24T09:16:36.802Z,4.59
2017-02-24T09:17:45.520Z,4.59
2017-02-24T09:18:54.608Z,4.54
2017-02-24T09:20:04.093Z,4.66
2017-02-24T09:21:13.593Z,4.66
2017-02-24T09:22:23.108Z,4.72
2017-02-24T09:23:32.584Z,4.8
2017-02-24T09:24:42.052Z,4.85
2017-02-24T09:25:51.545Z,4.91
2017-02-24T09:27:00.261Z,5
2017-02-24T09:28:10.194Z,5.12
2017-02-24T09:29:20.057Z,5.1
2017-02-24T09:30:29.155Z,5.03
2017-02-24T09:31:39.021Z,5.1
2017-02-24T09:32:48.112Z,5.09
2017-02-24T09:33:57.631Z,5.09
2017-02-24T09:35:07.917Z,5.09
2017-02-24T09:36:17.006Z,5.2
2017-02-24T09:37:26.873Z,5.2
2017-02-24T09:38:36.765Z,5.15
2017-02-24T09:39:46.628Z,5.15
2017-02-24T09:40:56.143Z,5.2
2017-02-24T09:42:05.621Z,5.31
2017-02-24T09:43:15.853Z,5.25
2017-02-24T09:44:25.716Z,5.33
2017-02-24T09:45:36.029Z,5.35
2017-02-24T09:46:46.279Z,5.3
2017-02-24T09:47:56.147Z,5.42
2017-02-24T09:49:06.023Z,5.57
2017-02-24T09:50:15.537Z,5.61
2017-02-24T09:51:25.045Z,5.71
2017-02-24T09:52:34.919Z,5.78
2017-02-24T09:53:44.401Z,5.82
2017-02-24T09:54:54.665Z,5.71
2017-02-24T09:56:04.153Z,5.76
2017-02-24T09:57:13.246Z,5.78
2017-02-24T09:58:23.122Z,5.89
2017-02-24T09:59:32.615Z,6.03
2017-02-24T10:00:42.516Z,6.11
2017-02-24T10:01:52.507Z,6.06
2017-02-24T10:03:01.237Z,6
2017-02-24T10:04:11.099Z,6.03
2017-02-24T10:05:20.216Z,6.06
2017-02-24T10:06:29.321Z,6.17
2017-02-24T10:07:39.220Z,6.19
2017-02-24T10:08:49.110Z,6.21
2017-02-24T10:09:58.581Z,6.43
2017-02-24T10:11:08.848Z,6.46
2017-02-24T10:12:18.724Z,6.48
2017-02-24T10:13:27.801Z,6.17
2017-02-24T10:14:36.547Z,6.25
2017-02-24T10:15:46.043Z,6.38
2017-02-24T10:16:55.916Z,6.54
2017-02-24T10:18:05.024Z,6.7
2017-02-24T10:19:14.520Z,6.87
2017-02-24T10:20:24.386Z,7.09
2017-02-24T10:21:33.507Z,7.07
2017-02-24T10:22:43.395Z,6.76
2017-02-24T10:23:52.884Z,6.61
2017-02-24T10:25:02.778Z,6.76
2017-02-24T10:26:12.258Z,7.24
2017-02-24T10:27:21.347Z,7.69
2017-02-24T10:28:31.598Z,7.5
2017-02-24T10:29:40.690Z,7.34
2017-02-24T10:30:50.947Z,7.16
2017-02-24T10:32:00.044Z,7.09
2017-02-24T10:33:09.909Z,7.2
2017-02-24T10:34:19.020Z,7.1
2017-02-24T10:35:28.155Z,7.21
2017-02-24T10:36:37.655Z,7.34
2017-02-24T10:37:46.809Z,7.55
2017-02-24T10:38:56.306Z,7.58
2017-02-24T10:40:06.161Z,7.35
2017-02-24T10:41:15.665Z,7.05
2017-02-24T10:42:25.146Z,6.8
2017-02-24T10:43:34.225Z,6.69
2017-02-24T10:44:44.089Z,6.69
2017-02-24T10:45:52.790Z,6.58
2017-02-24T10:47:02.290Z,6.48
2017-02-24T10:48:11.420Z,6.4
2017-02-24T10:49:20.506Z,6.3
2017-02-24T10:50:29.249Z,6.34
2017-02-24T10:51:38.724Z,6.22
2017-02-24T10:52:48.606Z,6.12
2017-02-24T10:53:58.080Z,5.86
2017-02-24T10:55:07.571Z,5.78
2017-02-24T10:56:16.665Z,5.76
2017-02-24T10:57:26.151Z,6.11
2017-02-24T10:58:35.254Z,6.06
2017-02-24T10:59:45.120Z,5.93
2017-02-24T11:00:53.891Z,5.9
2017-02-24T11:02:04.128Z,5.89
2017-02-24T11:03:13.222Z,6.19
2017-02-24T11:04:22.725Z,7.13
2017-02-24T11:05:31.841Z,8.12
2017-02-24T11:06:41.350Z,8.8
2017-02-24T11:07:50.464Z,9.46
2017-02-24T11:09:00.317Z,9.79
2017-02-24T11:10:09.469Z,10.01
2017-02-24T11:11:18.582Z,10.05
2017-02-24T11:12:28.504Z,10.18
2017-02-24T11:13:38.389Z,10.3
2017-02-24T11:14:47.490Z,10.41
2017-02-24T11:15:56.608Z,10.48
2017-02-24T11:17:06.093Z,10.51
2017-02-24T11:18:16.746Z,10.51
2017-02-24T11:19:26.623Z,10.7
2017-02-24T11:20:36.501Z,11.02
2017-02-24T11:21:46.375Z,11.18
2017-02-24T11:22:55.508Z,11.17
2017-02-24T11:24:05.370Z,10.48
2017-02-24T11:25:15.243Z,9.64
2017-02-24T11:26:24.351Z,9.11
2017-02-24T11:27:33.464Z,8.87
2017-02-24T11:28:42.548Z,9.15
2017-02-24T11:29:52.857Z,8.98
2017-02-24T11:31:01.553Z,8.47
2017-02-24T11:32:11.027Z,8.26
2017-02-24T11:33:21.673Z,8.29
2017-02-24T11:34:31.157Z,8.23
2017-02-24T11:35:41.088Z,8.2
2017-02-24T11:36:50.557Z,8.37
2017-02-24T11:38:00.412Z,8.5
2017-02-24T11:39:09.506Z,8.33
2017-02-24T11:40:18.990Z,8.33
2017-02-24T11:41:28.081Z,8.1
2017-02-24T11:42:37.175Z,7.75
2017-02-24T11:43:46.657Z,7.52
2017-02-24T11:44:55.759Z,7.24
2017-02-24T11:46:05.232Z,7.24
2017-02-24T11:47:15.154Z,7.32
2017-02-24T11:48:25.020Z,7.57
2017-02-24T11:49:34.889Z,7.71
2017-02-24T11:50:44.440Z,7.89
2017-02-24T11:51:55.128Z,7.89
2017-02-24T11:53:04.989Z,7.92
2017-02-24T11:54:14.106Z,7.89
2017-02-24T11:55:23.220Z,7.77
2017-02-24T11:56:32.326Z,7.79
2017-02-24T11:57:42.176Z,7.93
2017-02-24T11:58:51.274Z,8.15
2017-02-24T12:00:00.380Z,8.12
2017-02-24T12:01:09.852Z,8.36
2017-02-24T12:02:19.723Z,8.45
2017-02-24T12:03:29.199Z,8.53
2017-02-24T12:04:37.924Z,8.56
2017-02-24T12:05:48.185Z,8.4
2017-02-24T12:06:57.672Z,8.2
2017-02-24T12:08:07.153Z,8.01
2017-02-24T12:09:17.025Z,7.98
2017-02-24T12:10:26.161Z,8.01
2017-02-24T12:11:35.274Z,8.11
2017-02-24T12:12:44.750Z,8.02
2017-02-24T12:13:54.596Z,8.15
2017-02-24T12:15:03.704Z,8.19
2017-02-24T12:16:13.237Z,8.23
2017-02-24T12:17:22.718Z,8.18
2017-02-24T12:18:32.976Z,8.33
2017-02-24T12:19:42.095Z,8.33
2017-02-24T12:20:51.586Z,8.33
2017-02-24T12:22:01.075Z,8.12
2017-02-24T12:23:10.172Z,8.12
2017-02-24T12:24:19.665Z,7.87
2017-02-24T12:25:28.379Z,7.71
2017-02-24T12:26:37.843Z,7.52
2017-02-24T12:27:47.377Z,7.39
2017-02-24T12:28:56.846Z,7.16
2017-02-24T12:30:05.594Z,7.15
2017-02-24T12:31:15.105Z,7.07
2017-02-24T12:32:24.181Z,6.81
2017-02-24T12:33:32.925Z,6.8
2017-02-24T12:34:43.176Z,6.62
2017-02-24T12:35:52.270Z,6.54
2017-02-24T12:37:01.746Z,6.43
2017-02-24T12:38:11.246Z,6.46
2017-02-24T12:39:20.769Z,6.48
2017-02-24T12:40:30.654Z,6.46
2017-02-24T12:41:40.145Z,6.58
2017-02-24T12:42:49.616Z,6.58
2017-02-24T12:43:58.721Z,6.56
2017-02-24T12:45:07.852Z,6.48
2017-02-24T12:46:18.152Z,6.48
2017-02-24T12:47:28.023Z,6.55
2017-02-24T12:48:36.733Z,6.55
2017-02-24T12:49:46.613Z,6.41
2017-02-24T12:50:56.869Z,6.4
2017-02-24T12:52:06.338Z,6.17
2017-02-24T12:53:15.418Z,6.14
2017-02-24T12:54:25.666Z,6.15
2017-02-24T12:55:35.138Z,5.99
2017-02-24T12:56:44.238Z,5.83
2017-02-24T12:57:53.738Z,5.9
2017-02-24T12:59:02.846Z,5.91
2017-02-24T13:00:12.316Z,5.86
2017-02-24T13:01:21.785Z,5.85
2017-02-24T13:02:30.917Z,5.91
2017-02-24T13:03:40.773Z,6
2017-02-24T13:04:50.293Z,6.17
2017-02-24T13:05:59.796Z,6.33
2017-02-24T13:07:09.308Z,6.41
2017-02-24T13:08:18.023Z,6.49
2017-02-24T13:09:26.728Z,6.67
2017-02-24T13:10:35.819Z,6.61
2017-02-24T13:11:45.306Z,6.73
2017-02-24T13:12:55.167Z,6.91
2017-02-24T13:14:03.921Z,6.98
2017-02-24T13:15:13.405Z,7.06
2017-02-24T13:16:22.889Z,7.24
2017-02-24T13:17:32.811Z,7.24
2017-02-24T13:18:41.944Z,7.37
2017-02-24T13:19:52.350Z,7.42
2017-02-24T13:21:01.484Z,7.45
2017-02-24T13:22:10.208Z,7.63
2017-02-24T13:23:19.724Z,7.67
2017-02-24T13:24:29.207Z,7.63
2017-02-24T13:25:39.131Z,7.5
2017-02-24T13:26:48.631Z,7.64
2017-02-24T13:27:58.102Z,7.57
2017-02-24T13:29:07.984Z,7.57
2017-02-24T13:30:17.474Z,7.71
2017-02-24T13:31:26.187Z,7.67
2017-02-24T13:32:35.286Z,7.75
2017-02-24T13:33:44.811Z,7.64
2017-02-24T13:34:54.293Z,7.45
2017-02-24T13:36:04.570Z,7.4
2017-02-24T13:37:14.431Z,7.34
2017-02-24T13:38:23.530Z,7.21
2017-02-24T13:39:33.006Z,7.23
2017-02-24T13:40:42.129Z,7.21
2017-02-24T13:41:51.598Z,7.16
2017-02-24T13:43:01.142Z,7.25
2017-02-24T13:44:10.252Z,7.25
2017-02-24T13:45:20.137Z,7.13
2017-02-24T13:46:28.837Z,7.25
2017-02-24T13:47:37.923Z,7.25
2017-02-24T13:48:46.634Z,7.2
2017-02-24T13:49:56.504Z,7.25
2017-02-24T13:51:06.745Z,7.21
2017-02-24T13:52:16.221Z,7.3
2017-02-24T13:53:25.697Z,7.28
2017-02-24T13:54:35.574Z,7.37
2017-02-24T13:55:45.067Z,7.42
2017-02-24T13:56:55.038Z,7.46
2017-02-24T13:58:04.508Z,7.6
2017-02-24T13:59:13.223Z,7.79
2017-02-24T14:00:22.780Z,7.68
2017-02-24T14:01:32.662Z,7.77
2017-02-24T14:02:41.931Z,7.53
2017-02-24T14:03:51.252Z,7.49
2017-02-24T14:05:00.837Z,7.46
2017-02-24T14:06:10.467Z,7.39
2017-02-24T14:07:19.640Z,7.49
2017-02-24T14:08:29.541Z,7.49
2017-02-24T14:09:39.021Z,7.49
2017-02-24T14:10:48.889Z,7.48
2017-02-24T14:11:58.391Z,7.5
2017-02-24T14:13:07.507Z,7.49
2017-02-24T14:14:16.235Z,7.52
2017-02-24T14:15:25.324Z,7.75
2017-02-24T14:16:34.423Z,7.69
2017-02-24T14:17:43.902Z,7.63
2017-02-24T14:18:53.013Z,7.77
2017-02-24T14:20:02.491Z,7.83
2017-02-24T14:21:13.150Z,7.74
2017-02-24T14:22:23.012Z,7.67
2017-02-24T14:23:32.531Z,7.58
2017-02-24T14:24:42.023Z,7.45
2017-02-24T14:25:51.536Z,7.35
2017-02-24T14:27:00.639Z,7.28
2017-02-24T14:28:10.490Z,7.28
2017-02-24T14:29:19.594Z,7.16
2017-02-24T14:30:29.074Z,7.16
2017-02-24T14:31:38.146Z,7.24
2017-02-24T14:32:47.641Z,7.24
2017-02-24T14:33:56.740Z,7.39
2017-02-24T14:35:06.984Z,7.55
2017-02-24T14:36:16.862Z,7.71
2017-02-24T14:37:25.970Z,7.87
2017-02-24T14:38:35.064Z,8.01
2017-02-24T14:39:44.582Z,8.16
2017-02-24T14:40:53.690Z,8.33
2017-02-24T14:42:02.857Z,8.37
2017-02-24T14:43:12.358Z,8.29
2017-02-24T14:44:21.461Z,8.22
2017-02-24T14:45:30.958Z,8.15
2017-02-24T14:46:40.436Z,8.05
2017-02-24T14:47:50.309Z,8.02
2017-02-24T14:48:59.795Z,8.04
2017-02-24T14:50:08.909Z,7.92
2017-02-24T14:51:19.145Z,7.8
2017-02-24T14:52:28.676Z,7.68
2017-02-24T14:53:37.773Z,7.72
2017-02-24T14:54:46.886Z,7.6
2017-02-24T14:55:55.593Z,7.53
2017-02-24T14:57:05.107Z,7.6
2017-02-24T14:58:14.212Z,7.55
2017-02-24T14:59:22.987Z,7.58
2017-02-24T15:00:32.868Z,7.55
2017-02-24T15:01:42.738Z,7.5
2017-02-24T15:02:52.210Z,7.53
2017-02-24T15:04:01.318Z,7.42
2017-02-24T15:05:11.564Z,7.49
2017-02-24T15:06:21.491Z,7.43
2017-02-24T15:07:30.964Z,7.32
2017-02-24T15:08:40.428Z,7.25
2017-02-24T15:09:50.299Z,7.17
2017-02-24T15:10:59.759Z,7.05
2017-02-24T15:12:08.863Z,7.07
2017-02-24T15:13:17.960Z,6.98
2017-02-24T15:14:27.430Z,6.94
2017-02-24T15:15:37.289Z,6.81
2017-02-24T15:16:45.991Z,6.8
2017-02-24T15:17:55.487Z,6.87
2017-02-24T15:19:05.350Z,6.88
2017-02-24T15:20:14.844Z,7.06
2017-02-24T15:21:24.389Z,7.15
2017-02-24T15:22:33.102Z,7.23
2017-02-24T15:23:42.198Z,7.25
2017-02-24T15:24:51.696Z,7.37
2017-02-24T15:26:00.792Z,7.46
2017-02-24T15:27:09.901Z,7.5
2017-02-24T15:28:19.399Z,7.42